sensor_id;sensor_type;location;lat;lon;timestamp;P1;durP1;ratioP1;P2;durP2;ratioP2
30519;SDS011;17300;50.374;8.006;2023-08-12T00:01:01;3.72;;;3.15;;
30519;SDS011;17300;50.374;8.006;2023-08-12T00:03:27;3.00;;;2.70;;
30519;SDS011;17300;50.374;8.006;2023-08-12T00:05:54;2.88;;;2.55;;
30519;SDS011;17300;50.374;8.006;2023-08-12T00:08:21;2.60;;;2.40;;
30519;SDS011;17300;50.374;8.006;2023-08-12T00:10:48;2.88;;;2.67;;
30519;SDS011;17300;50.374;8.006;2023-08-12T00:13:16;3.45;;;2.90;;
30519;SDS011;17300;50.374;8.006;2023-08-12T00:15:43;4.13;;;2.88;;
30519;SDS011;17300;50.374;8.006;2023-08-12T00:18:09;3.38;;;2.90;;
30519;SDS011;17300;50.374;8.006;2023-08-12T00:20:36;3.22;;;2.90;;
30519;SDS011;17300;50.374;8.006;2023-08-12T00:23:04;2.83;;;2.42;;
30519;SDS011;17300;50.374;8.006;2023-08-12T00:25:31;3.00;;;2.80;;
30519;SDS011;17300;50.374;8.006;2023-08-12T00:27:57;9.15;;;2.95;;
30519;SDS011;17300;50.374;8.006;2023-08-12T00:30:25;3.22;;;2.92;;
30519;SDS011;17300;50.374;8.006;2023-08-12T00:32:52;2.90;;;2.70;;
30519;SDS011;17300;50.374;8.006;2023-08-12T00:35:19;3.25;;;2.90;;
30519;SDS011;17300;50.374;8.006;2023-08-12T00:37:45;4.20;;;3.13;;
30519;SDS011;17300;50.374;8.006;2023-08-12T00:40:12;3.22;;;2.72;;
30519;SDS011;17300;50.374;8.006;2023-08-12T00:42:39;2.85;;;2.50;;
30519;SDS011;17300;50.374;8.006;2023-08-12T00:45:07;3.22;;;2.95;;
30519;SDS011;17300;50.374;8.006;2023-08-12T00:47:39;3.00;;;2.70;;
30519;SDS011;17300;50.374;8.006;2023-08-12T00:50:07;4.05;;;2.80;;
30519;SDS011;17300;50.374;8.006;2023-08-12T00:52:37;3.40;;;3.10;;
30519;SDS011;17300;50.374;8.006;2023-08-12T00:55:04;5.63;;;2.85;;
30519;SDS011;17300;50.374;8.006;2023-08-12T00:57:30;5.55;;;2.72;;
30519;SDS011;17300;50.374;8.006;2023-08-12T00:59:57;4.65;;;2.88;;
30519;SDS011;17300;50.374;8.006;2023-08-12T01:02:25;2.95;;;2.75;;
30519;SDS011;17300;50.374;8.006;2023-08-12T01:04:53;2.95;;;2.75;;
30519;SDS011;17300;50.374;8.006;2023-08-12T01:07:20;3.60;;;2.90;;
30519;SDS011;17300;50.374;8.006;2023-08-12T01:09:46;2.63;;;2.42;;
30519;SDS011;17300;50.374;8.006;2023-08-12T01:12:13;4.38;;;2.88;;
30519;SDS011;17300;50.374;8.006;2023-08-12T01:14:49;3.63;;;2.65;;
30519;SDS011;17300;50.374;8.006;2023-08-12T01:17:22;2.65;;;2.45;;
30519;SDS011;17300;50.374;8.006;2023-08-12T01:19:49;2.85;;;2.65;;
30519;SDS011;17300;50.374;8.006;2023-08-12T01:22:18;3.65;;;2.75;;
30519;SDS011;17300;50.374;8.006;2023-08-12T01:24:48;4.72;;;2.80;;
30519;SDS011;17300;50.374;8.006;2023-08-12T01:27:17;3.67;;;2.70;;
30519;SDS011;17300;50.374;8.006;2023-08-12T01:29:45;2.90;;;2.58;;
30519;SDS011;17300;50.374;8.006;2023-08-12T01:32:17;2.83;;;2.63;;
30519;SDS011;17300;50.374;8.006;2023-08-12T01:34:53;3.13;;;2.85;;
30519;SDS011;17300;50.374;8.006;2023-08-12T01:37:24;3.33;;;2.88;;
30519;SDS011;17300;50.374;8.006;2023-08-12T01:39:55;2.75;;;2.53;;
30519;SDS011;17300;50.374;8.006;2023-08-12T01:42:24;2.97;;;2.67;;
30519;SDS011;17300;50.374;8.006;2023-08-12T01:44:54;2.92;;;2.72;;
30519;SDS011;17300;50.374;8.006;2023-08-12T01:47:22;3.22;;;2.70;;
30519;SDS011;17300;50.374;8.006;2023-08-12T01:49:48;3.35;;;3.10;;
30519;SDS011;17300;50.374;8.006;2023-08-12T01:52:15;2.80;;;2.53;;
30519;SDS011;17300;50.374;8.006;2023-08-12T01:54:42;4.10;;;2.67;;
30519;SDS011;17300;50.374;8.006;2023-08-12T01:57:10;5.13;;;3.13;;
30519;SDS011;17300;50.374;8.006;2023-08-12T01:59:37;3.47;;;2.88;;
30519;SDS011;17300;50.374;8.006;2023-08-12T02:02:03;3.95;;;3.20;;
30519;SDS011;17300;50.374;8.006;2023-08-12T02:04:30;3.67;;;2.92;;
30519;SDS011;17300;50.374;8.006;2023-08-12T02:06:57;3.05;;;2.83;;
30519;SDS011;17300;50.374;8.006;2023-08-12T02:09:24;4.68;;;3.20;;
30519;SDS011;17300;50.374;8.006;2023-08-12T02:11:50;3.58;;;2.97;;
30519;SDS011;17300;50.374;8.006;2023-08-12T02:14:18;3.20;;;2.90;;
30519;SDS011;17300;50.374;8.006;2023-08-12T02:16:45;3.97;;;3.03;;
30519;SDS011;17300;50.374;8.006;2023-08-12T02:19:12;3.20;;;2.90;;
30519;SDS011;17300;50.374;8.006;2023-08-12T02:21:39;3.50;;;3.20;;
30519;SDS011;17300;50.374;8.006;2023-08-12T02:24:06;4.20;;;3.53;;
30519;SDS011;17300;50.374;8.006;2023-08-12T02:26:33;4.10;;;3.67;;
30519;SDS011;17300;50.374;8.006;2023-08-12T02:29:00;3.90;;;3.60;;
30519;SDS011;17300;50.374;8.006;2023-08-12T02:31:28;5.05;;;3.47;;
30519;SDS011;17300;50.374;8.006;2023-08-12T02:33:55;3.72;;;3.42;;
30519;SDS011;17300;50.374;8.006;2023-08-12T02:36:21;3.60;;;3.30;;
30519;SDS011;17300;50.374;8.006;2023-08-12T02:38:48;4.75;;;4.18;;
30519;SDS011;17300;50.374;8.006;2023-08-12T02:41:15;4.40;;;4.00;;
30519;SDS011;17300;50.374;8.006;2023-08-12T02:43:42;5.80;;;5.20;;
30519;SDS011;17300;50.374;8.006;2023-08-12T02:46:08;5.32;;;4.82;;
30519;SDS011;17300;50.374;8.006;2023-08-12T02:48:36;5.40;;;4.80;;
30519;SDS011;17300;50.374;8.006;2023-08-12T02:51:03;5.75;;;5.22;;
30519;SDS011;17300;50.374;8.006;2023-08-12T02:53:29;6.03;;;5.43;;
30519;SDS011;17300;50.374;8.006;2023-08-12T02:55:56;6.07;;;5.57;;
30519;SDS011;17300;50.374;8.006;2023-08-12T02:58:23;5.70;;;5.10;;
30519;SDS011;17300;50.374;8.006;2023-08-12T03:00:50;5.82;;;4.47;;
30519;SDS011;17300;50.374;8.006;2023-08-12T03:03:17;4.97;;;4.47;;
30519;SDS011;17300;50.374;8.006;2023-08-12T03:05:46;6.40;;;5.80;;
30519;SDS011;17300;50.374;8.006;2023-08-12T03:08:13;6.30;;;5.78;;
30519;SDS011;17300;50.374;8.006;2023-08-12T03:10:40;6.20;;;5.60;;
30519;SDS011;17300;50.374;8.006;2023-08-12T03:13:07;5.95;;;5.45;;
30519;SDS011;17300;50.374;8.006;2023-08-12T03:15:38;5.25;;;4.53;;
30519;SDS011;17300;50.374;8.006;2023-08-12T03:18:04;5.50;;;5.03;;
30519;SDS011;17300;50.374;8.006;2023-08-12T03:20:31;6.00;;;5.50;;
30519;SDS011;17300;50.374;8.006;2023-08-12T03:22:59;6.38;;;5.78;;
30519;SDS011;17300;50.374;8.006;2023-08-12T03:25:26;6.82;;;6.32;;
30519;SDS011;17300;50.374;8.006;2023-08-12T03:27:52;5.88;;;5.38;;
30519;SDS011;17300;50.374;8.006;2023-08-12T03:30:19;5.68;;;4.57;;
30519;SDS011;17300;50.374;8.006;2023-08-12T03:32:46;5.63;;;4.55;;
30519;SDS011;17300;50.374;8.006;2023-08-12T03:35:13;7.45;;;5.22;;
30519;SDS011;17300;50.374;8.006;2023-08-12T03:37:40;6.43;;;5.88;;
30519;SDS011;17300;50.374;8.006;2023-08-12T03:40:08;6.32;;;5.82;;
30519;SDS011;17300;50.374;8.006;2023-08-12T03:42:36;6.43;;;5.93;;
30519;SDS011;17300;50.374;8.006;2023-08-12T03:45:02;6.25;;;5.75;;
30519;SDS011;17300;50.374;8.006;2023-08-12T03:47:30;9.05;;;4.38;;
30519;SDS011;17300;50.374;8.006;2023-08-12T03:49:56;5.85;;;4.53;;
30519;SDS011;17300;50.374;8.006;2023-08-12T03:52:23;6.13;;;5.57;;
30519;SDS011;17300;50.374;8.006;2023-08-12T03:54:50;6.28;;;5.78;;
30519;SDS011;17300;50.374;8.006;2023-08-12T03:57:19;6.18;;;5.60;;
30519;SDS011;17300;50.374;8.006;2023-08-12T03:59:46;6.40;;;5.88;;
30519;SDS011;17300;50.374;8.006;2023-08-12T04:02:12;6.57;;;6.07;;
30519;SDS011;17300;50.374;8.006;2023-08-12T04:04:39;4.88;;;4.43;;
30519;SDS011;17300;50.374;8.006;2023-08-12T04:07:07;5.90;;;5.40;;
30519;SDS011;17300;50.374;8.006;2023-08-12T04:09:34;5.75;;;5.25;;
30519;SDS011;17300;50.374;8.006;2023-08-12T04:12:00;5.40;;;5.00;;
30519;SDS011;17300;50.374;8.006;2023-08-12T04:14:29;6.82;;;6.28;;
30519;SDS011;17300;50.374;8.006;2023-08-12T04:16:55;6.93;;;6.38;;
30519;SDS011;17300;50.374;8.006;2023-08-12T04:19:22;6.93;;;6.40;;
30519;SDS011;17300;50.374;8.006;2023-08-12T04:21:49;6.75;;;6.13;;
30519;SDS011;17300;50.374;8.006;2023-08-12T04:24:15;7.20;;;6.60;;
30519;SDS011;17300;50.374;8.006;2023-08-12T04:26:42;6.93;;;6.32;;
30519;SDS011;17300;50.374;8.006;2023-08-12T04:29:09;5.72;;;4.55;;
30519;SDS011;17300;50.374;8.006;2023-08-12T04:31:37;6.22;;;5.72;;
30519;SDS011;17300;50.374;8.006;2023-08-12T04:34:03;6.35;;;5.80;;
30519;SDS011;17300;50.374;8.006;2023-08-12T04:36:30;6.68;;;6.13;;
30519;SDS011;17300;50.374;8.006;2023-08-12T04:38:57;6.80;;;6.28;;
30519;SDS011;17300;50.374;8.006;2023-08-12T04:41:23;6.95;;;6.35;;
30519;SDS011;17300;50.374;8.006;2023-08-12T04:43:50;7.28;;;6.65;;
30519;SDS011;17300;50.374;8.006;2023-08-12T04:46:17;7.30;;;6.70;;
30519;SDS011;17300;50.374;8.006;2023-08-12T04:48:45;6.07;;;5.00;;
30519;SDS011;17300;50.374;8.006;2023-08-12T04:51:11;6.00;;;5.50;;
30519;SDS011;17300;50.374;8.006;2023-08-12T04:53:39;6.68;;;6.18;;
30519;SDS011;17300;50.374;8.006;2023-08-12T04:56:06;6.57;;;6.07;;
30519;SDS011;17300;50.374;8.006;2023-08-12T04:58:32;6.90;;;6.40;;
30519;SDS011;17300;50.374;8.006;2023-08-12T05:01:00;4.65;;;3.92;;
30519;SDS011;17300;50.374;8.006;2023-08-12T05:03:27;6.65;;;5.90;;
30519;SDS011;17300;50.374;8.006;2023-08-12T05:05:55;5.50;;;4.95;;
30519;SDS011;17300;50.374;8.006;2023-08-12T05:08:22;6.40;;;5.90;;
30519;SDS011;17300;50.374;8.006;2023-08-12T05:10:49;6.70;;;6.05;;
30519;SDS011;17300;50.374;8.006;2023-08-12T05:13:16;6.47;;;4.32;;
30519;SDS011;17300;50.374;8.006;2023-08-12T05:15:44;7.00;;;5.30;;
30519;SDS011;17300;50.374;8.006;2023-08-12T05:18:11;4.70;;;4.30;;
30519;SDS011;17300;50.374;8.006;2023-08-12T05:20:38;5.43;;;4.15;;
30519;SDS011;17300;50.374;8.006;2023-08-12T05:23:06;6.57;;;6.03;;
30519;SDS011;17300;50.374;8.006;2023-08-12T05:25:33;6.97;;;4.70;;
30519;SDS011;17300;50.374;8.006;2023-08-12T05:28:00;5.05;;;3.63;;
30519;SDS011;17300;50.374;8.006;2023-08-12T05:30:27;5.32;;;4.20;;
30519;SDS011;17300;50.374;8.006;2023-08-12T05:32:53;5.13;;;4.35;;
30519;SDS011;17300;50.374;8.006;2023-08-12T05:35:20;8.18;;;7.38;;
30519;SDS011;17300;50.374;8.006;2023-08-12T05:37:46;8.27;;;7.47;;
30519;SDS011;17300;50.374;8.006;2023-08-12T05:40:15;7.82;;;7.22;;
30519;SDS011;17300;50.374;8.006;2023-08-12T05:42:41;8.73;;;7.80;;
30519;SDS011;17300;50.374;8.006;2023-08-12T05:45:08;9.18;;;8.38;;
30519;SDS011;17300;50.374;8.006;2023-08-12T05:47:35;15.32;;;14.13;;
30519;SDS011;17300;50.374;8.006;2023-08-12T05:50:03;8.98;;;8.27;;
30519;SDS011;17300;50.374;8.006;2023-08-12T05:52:31;9.23;;;8.52;;
30519;SDS011;17300;50.374;8.006;2023-08-12T05:54:58;10.35;;;9.45;;
30519;SDS011;17300;50.374;8.006;2023-08-12T05:57:26;9.40;;;8.70;;
30519;SDS011;17300;50.374;8.006;2023-08-12T05:59:53;9.40;;;8.35;;
30519;SDS011;17300;50.374;8.006;2023-08-12T06:02:20;10.20;;;9.20;;
30519;SDS011;17300;50.374;8.006;2023-08-12T06:04:46;9.25;;;8.45;;
30519;SDS011;17300;50.374;8.006;2023-08-12T06:07:13;9.38;;;8.60;;
30519;SDS011;17300;50.374;8.006;2023-08-12T06:09:40;10.60;;;9.70;;
30519;SDS011;17300;50.374;8.006;2023-08-12T06:12:06;9.43;;;8.63;;
30519;SDS011;17300;50.374;8.006;2023-08-12T06:14:35;10.05;;;9.15;;
30519;SDS011;17300;50.374;8.006;2023-08-12T06:17:03;10.25;;;9.45;;
30519;SDS011;17300;50.374;8.006;2023-08-12T06:19:29;9.82;;;8.93;;
30519;SDS011;17300;50.374;8.006;2023-08-12T06:21:56;9.07;;;8.30;;
30519;SDS011;17300;50.374;8.006;2023-08-12T06:24:23;10.40;;;9.50;;
30519;SDS011;17300;50.374;8.006;2023-08-12T06:26:49;9.65;;;8.75;;
30519;SDS011;17300;50.374;8.006;2023-08-12T06:29:16;9.45;;;8.65;;
30519;SDS011;17300;50.374;8.006;2023-08-12T06:31:44;8.85;;;8.20;;
30519;SDS011;17300;50.374;8.006;2023-08-12T06:34:11;9.45;;;8.68;;
30519;SDS011;17300;50.374;8.006;2023-08-12T06:36:37;9.95;;;9.15;;
30519;SDS011;17300;50.374;8.006;2023-08-12T06:39:04;10.32;;;9.43;;
30519;SDS011;17300;50.374;8.006;2023-08-12T06:41:31;10.60;;;9.60;;
30519;SDS011;17300;50.374;8.006;2023-08-12T06:43:58;10.27;;;9.38;;
30519;SDS011;17300;50.374;8.006;2023-08-12T06:46:26;9.15;;;8.40;;
30519;SDS011;17300;50.374;8.006;2023-08-12T06:48:54;10.80;;;9.80;;
30519;SDS011;17300;50.374;8.006;2023-08-12T06:51:21;9.82;;;8.93;;
30519;SDS011;17300;50.374;8.006;2023-08-12T06:53:48;9.63;;;8.82;;
30519;SDS011;17300;50.374;8.006;2023-08-12T06:56:14;9.10;;;8.20;;
30519;SDS011;17300;50.374;8.006;2023-08-12T06:58:41;9.25;;;7.95;;
30519;SDS011;17300;50.374;8.006;2023-08-12T07:01:08;8.82;;;8.07;;
30519;SDS011;17300;50.374;8.006;2023-08-12T07:03:34;12.57;;;11.57;;
30519;SDS011;17300;50.374;8.006;2023-08-12T07:06:02;10.05;;;9.25;;
30519;SDS011;17300;50.374;8.006;2023-08-12T07:08:29;8.52;;;7.82;;
30519;SDS011;17300;50.374;8.006;2023-08-12T07:10:57;8.02;;;7.32;;
30519;SDS011;17300;50.374;8.006;2023-08-12T07:13:23;8.10;;;7.40;;
30519;SDS011;17300;50.374;8.006;2023-08-12T07:15:50;7.72;;;7.13;;
30519;SDS011;17300;50.374;8.006;2023-08-12T07:18:17;8.27;;;7.47;;
30519;SDS011;17300;50.374;8.006;2023-08-12T07:20:43;7.85;;;7.25;;
30519;SDS011;17300;50.374;8.006;2023-08-12T07:23:11;8.15;;;7.55;;
30519;SDS011;17300;50.374;8.006;2023-08-12T07:25:38;8.68;;;7.60;;
30519;SDS011;17300;50.374;8.006;2023-08-12T07:28:05;7.80;;;7.10;;
30519;SDS011;17300;50.374;8.006;2023-08-12T07:30:33;7.35;;;6.70;;
30519;SDS011;17300;50.374;8.006;2023-08-12T07:33:00;7.15;;;6.65;;
30519;SDS011;17300;50.374;8.006;2023-08-12T07:35:27;6.80;;;6.20;;
30519;SDS011;17300;50.374;8.006;2023-08-12T07:37:54;6.70;;;6.20;;
30519;SDS011;17300;50.374;8.006;2023-08-12T07:40:22;7.03;;;5.82;;
30519;SDS011;17300;50.374;8.006;2023-08-12T07:42:49;6.65;;;6.00;;
30519;SDS011;17300;50.374;8.006;2023-08-12T07:45:16;6.72;;;6.07;;
30519;SDS011;17300;50.374;8.006;2023-08-12T07:47:43;6.38;;;5.88;;
30519;SDS011;17300;50.374;8.006;2023-08-12T07:50:09;6.65;;;6.07;;
30519;SDS011;17300;50.374;8.006;2023-08-12T07:52:36;6.80;;;5.97;;
30519;SDS011;17300;50.374;8.006;2023-08-12T07:55:03;6.45;;;5.93;;
30519;SDS011;17300;50.374;8.006;2023-08-12T07:57:32;7.28;;;6.68;;
30519;SDS011;17300;50.374;8.006;2023-08-12T07:59:59;7.63;;;7.03;;
30519;SDS011;17300;50.374;8.006;2023-08-12T08:02:26;8.65;;;7.90;;
30519;SDS011;17300;50.374;8.006;2023-08-12T08:04:52;7.57;;;6.90;;
30519;SDS011;17300;50.374;8.006;2023-08-12T08:07:19;8.18;;;7.53;;
30519;SDS011;17300;50.374;8.006;2023-08-12T08:09:46;8.32;;;7.53;;
30519;SDS011;17300;50.374;8.006;2023-08-12T08:12:13;7.10;;;6.53;;
30519;SDS011;17300;50.374;8.006;2023-08-12T08:14:41;7.85;;;7.22;;
30519;SDS011;17300;50.374;8.006;2023-08-12T08:17:07;7.25;;;6.65;;
30519;SDS011;17300;50.374;8.006;2023-08-12T08:19:34;8.13;;;7.43;;
30519;SDS011;17300;50.374;8.006;2023-08-12T08:22:01;7.28;;;6.68;;
30519;SDS011;17300;50.374;8.006;2023-08-12T08:24:28;7.10;;;6.60;;
30519;SDS011;17300;50.374;8.006;2023-08-12T08:26:54;7.38;;;6.78;;
30519;SDS011;17300;50.374;8.006;2023-08-12T08:29:21;7.05;;;6.45;;
30519;SDS011;17300;50.374;8.006;2023-08-12T08:31:49;6.70;;;6.20;;
30519;SDS011;17300;50.374;8.006;2023-08-12T08:34:16;6.45;;;5.85;;
30519;SDS011;17300;50.374;8.006;2023-08-12T08:36:42;6.25;;;5.75;;
30519;SDS011;17300;50.374;8.006;2023-08-12T08:39:09;5.55;;;5.15;;
30519;SDS011;17300;50.374;8.006;2023-08-12T08:41:37;6.22;;;5.72;;
30519;SDS011;17300;50.374;8.006;2023-08-12T08:44:06;4.97;;;4.68;;
30519;SDS011;17300;50.374;8.006;2023-08-12T08:46:33;5.40;;;4.93;;
30519;SDS011;17300;50.374;8.006;2023-08-12T08:49:02;5.00;;;4.60;;
30519;SDS011;17300;50.374;8.006;2023-08-12T08:51:30;4.70;;;4.30;;
30519;SDS011;17300;50.374;8.006;2023-08-12T08:53:58;4.63;;;4.22;;
30519;SDS011;17300;50.374;8.006;2023-08-12T08:56:24;4.18;;;3.88;;
30519;SDS011;17300;50.374;8.006;2023-08-12T08:58:52;4.50;;;4.10;;
30519;SDS011;17300;50.374;8.006;2023-08-12T09:01:20;4.45;;;4.15;;
30519;SDS011;17300;50.374;8.006;2023-08-12T09:03:48;4.68;;;4.35;;
30519;SDS011;17300;50.374;8.006;2023-08-12T09:06:19;4.18;;;3.88;;
30519;SDS011;17300;50.374;8.006;2023-08-12T09:08:47;4.25;;;3.95;;
30519;SDS011;17300;50.374;8.006;2023-08-12T09:11:17;4.13;;;3.78;;
30519;SDS011;17300;50.374;8.006;2023-08-12T09:13:44;3.95;;;3.65;;
30519;SDS011;17300;50.374;8.006;2023-08-12T09:16:11;4.00;;;3.70;;
30519;SDS011;17300;50.374;8.006;2023-08-12T09:18:38;3.92;;;3.15;;
30519;SDS011;17300;50.374;8.006;2023-08-12T09:21:06;3.38;;;3.15;;
30519;SDS011;17300;50.374;8.006;2023-08-12T09:23:35;3.45;;;3.17;;
30519;SDS011;17300;50.374;8.006;2023-08-12T09:26:04;3.53;;;3.28;;
30519;SDS011;17300;50.374;8.006;2023-08-12T09:28:38;3.30;;;3.00;;
30519;SDS011;17300;50.374;8.006;2023-08-12T09:31:05;3.55;;;3.25;;
30519;SDS011;17300;50.374;8.006;2023-08-12T09:33:32;3.17;;;2.88;;
30519;SDS011;17300;50.374;8.006;2023-08-12T09:35:58;3.05;;;2.85;;
30519;SDS011;17300;50.374;8.006;2023-08-12T09:38:25;2.85;;;2.65;;
30519;SDS011;17300;50.374;8.006;2023-08-12T09:40:53;2.47;;;2.38;;
30519;SDS011;17300;50.374;8.006;2023-08-12T09:43:23;2.85;;;2.20;;
30519;SDS011;17300;50.374;8.006;2023-08-12T09:45:49;3.88;;;2.05;;
30519;SDS011;17300;50.374;8.006;2023-08-12T09:48:16;2.05;;;1.95;;
30519;SDS011;17300;50.374;8.006;2023-08-12T09:50:43;1.90;;;1.80;;
30519;SDS011;17300;50.374;8.006;2023-08-12T09:53:09;1.85;;;1.75;;
30519;SDS011;17300;50.374;8.006;2023-08-12T09:55:36;1.80;;;1.70;;
30519;SDS011;17300;50.374;8.006;2023-08-12T09:58:06;2.13;;;2.03;;
30519;SDS011;17300;50.374;8.006;2023-08-12T10:00:35;2.05;;;1.95;;
30519;SDS011;17300;50.374;8.006;2023-08-12T10:03:02;2.15;;;1.85;;
30519;SDS011;17300;50.374;8.006;2023-08-12T10:05:31;1.98;;;1.88;;
30519;SDS011;17300;50.374;8.006;2023-08-12T10:07:59;1.58;;;1.48;;
30519;SDS011;17300;50.374;8.006;2023-08-12T10:10:28;1.60;;;1.50;;
30519;SDS011;17300;50.374;8.006;2023-08-12T10:12:56;2.15;;;1.63;;
30519;SDS011;17300;50.374;8.006;2023-08-12T10:15:26;1.55;;;1.45;;
30519;SDS011;17300;50.374;8.006;2023-08-12T10:17:53;3.08;;;1.40;;
30519;SDS011;17300;50.374;8.006;2023-08-12T10:20:22;1.50;;;1.40;;
30519;SDS011;17300;50.374;8.006;2023-08-12T10:22:51;1.45;;;1.35;;
30519;SDS011;17300;50.374;8.006;2023-08-12T10:25:19;1.60;;;1.50;;
30519;SDS011;17300;50.374;8.006;2023-08-12T10:27:47;1.63;;;1.50;;
30519;SDS011;17300;50.374;8.006;2023-08-12T10:30:14;1.58;;;1.48;;
30519;SDS011;17300;50.374;8.006;2023-08-12T10:32:42;1.50;;;1.35;;
30519;SDS011;17300;50.374;8.006;2023-08-12T10:35:09;1.48;;;1.40;;
30519;SDS011;17300;50.374;8.006;2023-08-12T10:37:37;1.60;;;1.50;;
30519;SDS011;17300;50.374;8.006;2023-08-12T10:40:05;1.73;;;1.63;;
30519;SDS011;17300;50.374;8.006;2023-08-12T10:42:45;2.33;;;1.77;;
30519;SDS011;17300;50.374;8.006;2023-08-12T10:45:13;1.55;;;1.45;;
30519;SDS011;17300;50.374;8.006;2023-08-12T10:47:42;1.60;;;1.50;;
30519;SDS011;17300;50.374;8.006;2023-08-12T10:50:17;1.60;;;1.50;;
30519;SDS011;17300;50.374;8.006;2023-08-12T10:52:44;1.50;;;1.40;;
30519;SDS011;17300;50.374;8.006;2023-08-12T10:55:18;1.63;;;1.40;;
30519;SDS011;17300;50.374;8.006;2023-08-12T10:57:46;1.48;;;1.38;;
30519;SDS011;17300;50.374;8.006;2023-08-12T11:00:13;1.70;;;1.60;;
30519;SDS011;17300;50.374;8.006;2023-08-12T11:02:45;1.50;;;1.40;;
30519;SDS011;17300;50.374;8.006;2023-08-12T11:05:12;1.23;;;1.23;;
30519;SDS011;17300;50.374;8.006;2023-08-12T11:07:40;1.55;;;1.42;;
30519;SDS011;17300;50.374;8.006;2023-08-12T11:10:12;1.98;;;1.40;;
30519;SDS011;17300;50.374;8.006;2023-08-12T11:12:40;1.50;;;1.40;;
30519;SDS011;17300;50.374;8.006;2023-08-12T11:15:08;2.25;;;1.48;;
30519;SDS011;17300;50.374;8.006;2023-08-12T11:17:37;1.33;;;1.23;;
30519;SDS011;17300;50.374;8.006;2023-08-12T11:20:06;1.35;;;1.25;;
30519;SDS011;17300;50.374;8.006;2023-08-12T11:22:35;2.72;;;1.40;;
30519;SDS011;17300;50.374;8.006;2023-08-12T11:25:03;1.58;;;1.30;;
30519;SDS011;17300;50.374;8.006;2023-08-12T11:27:37;1.45;;;1.30;;
30519;SDS011;17300;50.374;8.006;2023-08-12T11:30:05;1.23;;;1.20;;
30519;SDS011;17300;50.374;8.006;2023-08-12T11:32:33;1.23;;;1.10;;
30519;SDS011;17300;50.374;8.006;2023-08-12T11:35:00;2.13;;;1.50;;
30519;SDS011;17300;50.374;8.006;2023-08-12T11:37:30;1.30;;;1.20;;
30519;SDS011;17300;50.374;8.006;2023-08-12T11:39:57;1.30;;;1.20;;
30519;SDS011;17300;50.374;8.006;2023-08-12T11:42:23;1.40;;;1.30;;
30519;SDS011;17300;50.374;8.006;2023-08-12T11:44:50;2.15;;;1.30;;
30519;SDS011;17300;50.374;8.006;2023-08-12T11:47:17;1.45;;;1.35;;
30519;SDS011;17300;50.374;8.006;2023-08-12T11:49:43;1.40;;;1.30;;
30519;SDS011;17300;50.374;8.006;2023-08-12T11:52:10;1.50;;;1.40;;
30519;SDS011;17300;50.374;8.006;2023-08-12T11:54:38;1.50;;;1.40;;
30519;SDS011;17300;50.374;8.006;2023-08-12T11:57:05;1.52;;;1.42;;
30519;SDS011;17300;50.374;8.006;2023-08-12T11:59:32;1.35;;;1.23;;
30519;SDS011;17300;50.374;8.006;2023-08-12T12:02:01;2.22;;;1.55;;
30519;SDS011;17300;50.374;8.006;2023-08-12T12:04:30;1.40;;;1.30;;
30519;SDS011;17300;50.374;8.006;2023-08-12T12:06:57;1.10;;;1.10;;
30519;SDS011;17300;50.374;8.006;2023-08-12T12:09:24;1.15;;;1.15;;
30519;SDS011;17300;50.374;8.006;2023-08-12T12:11:52;1.20;;;1.20;;
30519;SDS011;17300;50.374;8.006;2023-08-12T12:14:20;1.50;;;1.40;;
30519;SDS011;17300;50.374;8.006;2023-08-12T12:16:48;1.30;;;1.30;;
30519;SDS011;17300;50.374;8.006;2023-08-12T12:19:16;1.50;;;1.20;;
30519;SDS011;17300;50.374;8.006;2023-08-12T12:21:44;1.40;;;1.30;;
30519;SDS011;17300;50.374;8.006;2023-08-12T12:24:12;1.85;;;1.40;;
30519;SDS011;17300;50.374;8.006;2023-08-12T12:26:39;1.40;;;1.13;;
30519;SDS011;17300;50.374;8.006;2023-08-12T12:29:08;1.77;;;1.50;;
30519;SDS011;17300;50.374;8.006;2023-08-12T12:31:36;1.67;;;1.15;;
30519;SDS011;17300;50.374;8.006;2023-08-12T12:34:04;2.00;;;1.40;;
30519;SDS011;17300;50.374;8.006;2023-08-12T12:36:31;1.20;;;1.15;;
30519;SDS011;17300;50.374;8.006;2023-08-12T12:38:59;1.35;;;1.30;;
30519;SDS011;17300;50.374;8.006;2023-08-12T12:41:26;1.30;;;1.20;;
30519;SDS011;17300;50.374;8.006;2023-08-12T12:43:53;2.15;;;1.33;;
30519;SDS011;17300;50.374;8.006;2023-08-12T12:46:21;1.35;;;1.30;;
30519;SDS011;17300;50.374;8.006;2023-08-12T12:48:48;1.42;;;1.33;;
30519;SDS011;17300;50.374;8.006;2023-08-12T12:51:15;1.30;;;1.20;;
30519;SDS011;17300;50.374;8.006;2023-08-12T12:53:41;1.20;;;1.10;;
30519;SDS011;17300;50.374;8.006;2023-08-12T12:56:08;1.95;;;1.13;;
30519;SDS011;17300;50.374;8.006;2023-08-12T12:58:35;1.27;;;1.13;;
30519;SDS011;17300;50.374;8.006;2023-08-12T13:01:03;1.50;;;1.40;;
30519;SDS011;17300;50.374;8.006;2023-08-12T13:03:31;1.30;;;1.20;;
30519;SDS011;17300;50.374;8.006;2023-08-12T13:05:58;1.15;;;1.13;;
30519;SDS011;17300;50.374;8.006;2023-08-12T13:08:25;1.52;;;1.20;;
30519;SDS011;17300;50.374;8.006;2023-08-12T13:10:52;1.48;;;1.20;;
30519;SDS011;17300;50.374;8.006;2023-08-12T13:13:19;1.42;;;1.25;;
30519;SDS011;17300;50.374;8.006;2023-08-12T13:15:45;1.15;;;1.15;;
30519;SDS011;17300;50.374;8.006;2023-08-12T13:18:13;1.98;;;1.20;;
30519;SDS011;17300;50.374;8.006;2023-08-12T13:20:41;1.25;;;1.15;;
30519;SDS011;17300;50.374;8.006;2023-08-12T13:23:07;1.27;;;1.17;;
30519;SDS011;17300;50.374;8.006;2023-08-12T13:25:34;1.40;;;1.30;;
30519;SDS011;17300;50.374;8.006;2023-08-12T13:28:01;1.27;;;1.17;;
30519;SDS011;17300;50.374;8.006;2023-08-12T13:30:28;1.40;;;1.30;;
30519;SDS011;17300;50.374;8.006;2023-08-12T13:32:56;3.00;;;1.23;;
30519;SDS011;17300;50.374;8.006;2023-08-12T13:35:23;1.10;;;1.10;;
30519;SDS011;17300;50.374;8.006;2023-08-12T13:37:51;1.30;;;1.10;;
30519;SDS011;17300;50.374;8.006;2023-08-12T13:40:17;0.95;;;0.93;;
30519;SDS011;17300;50.374;8.006;2023-08-12T13:42:44;1.40;;;1.30;;
30519;SDS011;17300;50.374;8.006;2023-08-12T13:45:12;1.40;;;1.30;;
30519;SDS011;17300;50.374;8.006;2023-08-12T13:47:39;1.35;;;1.20;;
30519;SDS011;17300;50.374;8.006;2023-08-12T13:50:06;1.00;;;1.00;;
30519;SDS011;17300;50.374;8.006;2023-08-12T13:52:33;1.25;;;1.00;;
30519;SDS011;17300;50.374;8.006;2023-08-12T13:55:02;1.40;;;1.30;;
30519;SDS011;17300;50.374;8.006;2023-08-12T13:57:29;1.33;;;1.23;;
30519;SDS011;17300;50.374;8.006;2023-08-12T13:59:56;1.40;;;1.30;;
30519;SDS011;17300;50.374;8.006;2023-08-12T14:02:22;1.40;;;1.30;;
30519;SDS011;17300;50.374;8.006;2023-08-12T14:04:50;1.40;;;1.30;;
30519;SDS011;17300;50.374;8.006;2023-08-12T14:07:16;1.45;;;1.35;;
30519;SDS011;17300;50.374;8.006;2023-08-12T14:09:45;1.42;;;1.20;;
30519;SDS011;17300;50.374;8.006;2023-08-12T14:12:13;1.15;;;1.02;;
30519;SDS011;17300;50.374;8.006;2023-08-12T14:14:40;1.88;;;1.08;;
30519;SDS011;17300;50.374;8.006;2023-08-12T14:17:07;1.20;;;1.10;;
30519;SDS011;17300;50.374;8.006;2023-08-12T14:19:38;1.60;;;1.50;;
30519;SDS011;17300;50.374;8.006;2023-08-12T14:22:05;1.30;;;1.20;;
30519;SDS011;17300;50.374;8.006;2023-08-12T14:24:31;1.50;;;1.10;;
30519;SDS011;17300;50.374;8.006;2023-08-12T14:26:58;1.20;;;1.10;;
30519;SDS011;17300;50.374;8.006;2023-08-12T14:29:26;1.27;;;1.17;;
30519;SDS011;17300;50.374;8.006;2023-08-12T14:31:53;1.25;;;1.15;;
30519;SDS011;17300;50.374;8.006;2023-08-12T14:34:19;1.17;;;1.08;;
30519;SDS011;17300;50.374;8.006;2023-08-12T14:36:46;1.20;;;1.10;;
30519;SDS011;17300;50.374;8.006;2023-08-12T14:39:12;1.10;;;1.00;;
30519;SDS011;17300;50.374;8.006;2023-08-12T14:41:39;1.73;;;1.20;;
30519;SDS011;17300;50.374;8.006;2023-08-12T14:44:06;1.33;;;0.98;;
30519;SDS011;17300;50.374;8.006;2023-08-12T14:46:34;0.90;;;0.90;;
30519;SDS011;17300;50.374;8.006;2023-08-12T14:49:00;1.10;;;1.00;;